Time;durP1;ratioP1;P1;durP2;ratioP2;P2;SDS_P1;SDS_P2;PMS_P1;PMS_P2;Temp;Humidity;BMP_temperature;BMP_pressure;BME280_temperature;BME280_humidity;BME280_pressure;Samples;Min_cycle;Max_cycle;Signal;HPM_P1;HPM_P2
2021/04/21 00:00:23;;;;;;;12.77;4.88;;;20.70;60.50;;;;;;4955173;29;20023;-68
2021/04/21 00:02:52;;;;;;;9.45;7.25;;;20.80;53.10;;;;;;4969548;28;20027;-67
2021/04/21 00:05:23;;;;;;;16.08;4.97;;;20.70;56.70;;;;;;4956766;28;20023;-65
2021/04/21 00:07:52;;;;;;;7.05;5.13;;;20.70;55.50;;;;;;4973934;28;20023;-68
2021/04/21 00:10:21;;;;;;;14.50;3.53;;;20.90;55.10;;;;;;4971510;28;20031;-68
2021/04/21 00:12:51;;;;;;;12.77;5.35;;;20.80;53.40;;;;;;4965080;28;20027;-66
2021/04/21 00:15:22;;;;;;;4.15;2.30;;;20.80;57.80;;;;;;4974506;28;20039;-66
2021/04/21 00:17:57;;;;;;;21.27;6.65;;;20.60;53.30;;;;;;4970211;28;20031;-65
2021/04/21 00:20:26;;;;;;;10.60;5.82;;;20.80;58.40;;;;;;4954075;29;20032;-65
2021/04/21 00:22:59;;;;;;;7.93;4.30;;;21.00;51.20;;;;;;4954714;29;20027;-65
2021/04/21 00:25:33;;;;;;;4.13;2.03;;;20.90;52.60;;;;;;4953202;29;20027;-65
2021/04/21 00:28:05;;;;;;;8.52;7.15;;;21.10;51.60;;;;;;4965963;28;20118;-67
2021/04/21 00:30:34;;;;;;;4.45;2.05;;;21.40;52.80;;;;;;4972404;28;20019;-67
2021/04/21 00:33:02;;;;;;;8.88;3.78;;;21.50;55.80;;;;;;4957580;28;20070;-67
2021/04/21 00:35:39;;;;;;;4.10;1.58;;;21.40;50.10;;;;;;4954680;28;20409;-67
2021/04/21 00:38:17;;;;;;;8.30;6.88;;;21.40;52.60;;;;;;4973829;28;20031;-67
2021/04/21 00:40:50;;;;;;;4.30;2.13;;;21.50;58.70;;;;;;4966905;28;20078;-66
2021/04/21 00:43:55;;;;;;;7.85;5.15;;;21.30;55.60;;;;;;4954600;29;20023;-67
2021/04/21 00:46:38;;;;;;;6.70;5.80;;;21.30;49.30;;;;;;4909105;29;20514;-65
2021/04/21 00:49:13;;;;;;;4.90;3.70;;;21.20;50.80;;;;;;4969446;28;20050;-67
2021/04/21 00:51:53;;;;;;;7.03;4.75;;;21.10;49.80;;;;;;4973035;28;20462;-67
2021/04/21 00:54:52;;;;;;;6.88;3.40;;;21.30;50.90;;;;;;4956688;28;20036;-66
2021/04/21 00:57:23;;;;;;;9.80;4.45;;;21.20;50.20;;;;;;4954235;29;20130;-69
2021/04/21 01:00:17;;;;;;;2.92;1.33;;;21.10;53.10;;;;;;4968800;28;20031;-67
2021/04/21 01:02:47;;;;;;;5.03;1.40;;;21.00;49.80;;;;;;4974485;28;20030;-70
2021/04/21 01:05:19;;;;;;;10.23;2.53;;;21.30;49.40;;;;;;4977618;28;20027;-68
2021/04/21 01:07:49;;;;;;;3.13;1.50;;;21.60;50.10;;;;;;4977392;28;20109;-66
2021/04/21 01:10:18;;;;;;;3.13;1.23;;;21.80;48.60;;;;;;4977826;28;20031;-68
2021/04/21 01:12:49;;;;;;;10.85;2.95;;;22.00;50.50;;;;;;4977407;28;20130;-69
2021/04/21 01:15:18;;;;;;;6.45;2.75;;;22.20;49.30;;;;;;4977162;28;20030;-64
2021/04/21 01:17:50;;;;;;;9.75;2.60;;;22.40;51.10;;;;;;4976794;28;20071;-61
2021/04/21 01:20:31;;;;;;;10.07;3.58;;;22.70;51.40;;;;;;4976753;28;20026;-64
2021/04/21 01:23:35;;;;;;;11.75;2.03;;;22.90;49.10;;;;;;4977398;28;20038;-57
2021/04/21 01:26:11;;;;;;;5.55;1.90;;;22.90;50.10;;;;;;4977028;28;20051;-61
2021/04/21 01:28:47;;;;;;;7.65;1.70;;;22.90;49.20;;;;;;4977032;28;20031;-61
2021/04/21 01:31:18;;;;;;;11.82;2.22;;;22.80;50.00;;;;;;4959984;28;20106;-61
2021/04/21 01:33:48;;;;;;;6.85;1.83;;;22.90;49.60;;;;;;4976234;28;20023;-58
2021/04/21 01:36:19;;;;;;;7.05;1.60;;;22.90;48.70;;;;;;4976770;28;20027;-59
2021/04/21 01:38:48;;;;;;;4.43;1.30;;;23.00;47.60;;;;;;4976926;28;20328;-55
2021/04/21 01:41:26;;;;;;;6.32;1.58;;;23.20;47.10;;;;;;4976628;28;20343;-56
2021/04/21 01:44:06;;;;;;;4.88;1.98;;;23.20;47.50;;;;;;4977555;28;20039;-59
2021/04/21 01:46:40;;;;;;;9.13;1.90;;;23.20;47.80;;;;;;4977162;28;20030;-59
2021/04/21 01:49:24;;;;;;;5.47;1.40;;;23.30;48.90;;;;;;4976794;28;20511;-64
2021/04/21 01:51:59;;;;;;;2.58;1.35;;;23.30;47.60;;;;;;4976455;28;20118;-61
2021/04/21 01:54:30;;;;;;;7.25;1.42;;;23.30;47.60;;;;;;4976318;28;20397;-58
2021/04/21 01:57:08;;;;;;;5.90;1.17;;;23.30;47.00;;;;;;4975699;28;20378;-62
2021/04/21 02:00:11;;;;;;;9.63;2.00;;;23.30;49.20;;;;;;4976161;28;20034;-61
2021/04/21 02:02:43;;;;;;;8.82;2.22;;;23.30;47.80;;;;;;4976388;28;20522;-62
2021/04/21 02:05:30;;;;;;;14.50;2.13;;;23.20;45.90;;;;;;4967330;28;20193;-54
2021/04/21 02:08:29;;;;;;;10.90;1.50;;;23.20;50.10;;;;;;4974177;28;20082;-51
2021/04/21 02:11:23;;;;;;;6.18;1.42;;;23.30;50.40;;;;;;4974106;28;20115;-64
2021/04/21 02:14:10;;;;;;;4.35;1.13;;;22.90;52.30;;;;;;4972493;28;20474;-63
2021/04/21 02:17:06;;;;;;;3.17;1.30;;;22.70;51.60;;;;;;4972368;28;20023;-65
2021/04/21 02:20:00;;;;;;;4.78;1.65;;;22.60;54.10;;;;;;4974429;28;20085;-65
2021/04/21 02:22:54;;;;;;;6.97;1.30;;;22.60;54.20;;;;;;4971149;28;20031;-62
2021/04/21 02:25:31;;;;;;;11.63;1.80;;;22.60;54.00;;;;;;4972219;28;20544;-68
2021/04/21 02:28:07;;;;;;;15.52;1.88;;;22.70;55.10;;;;;;4973939;28;20470;-62
2021/04/21 02:30:42;;;;;;;9.60;1.60;;;22.70;53.60;;;;;;4974144;28;20045;-65
2021/04/21 02:33:31;;;;;;;6.50;1.20;;;22.70;54.90;;;;;;4969570;28;20050;-63
2021/04/21 02:36:10;;;;;;;4.90;1.38;;;22.70;53.10;;;;;;4971867;28;20033;-64
2021/04/21 02:38:43;;;;;;;4.13;1.23;;;22.80;52.20;;;;;;4972831;28;20035;-66
2021/04/21 02:41:17;;;;;;;6.85;1.45;;;22.90;55.00;;;;;;4949504;28;20129;-67
2021/04/21 02:43:56;;;;;;;7.80;1.08;;;22.90;53.10;;;;;;4973315;28;20038;-65
2021/04/21 02:46:27;;;;;;;5.65;1.58;;;23.00;54.60;;;;;;4971730;28;20458;-63
2021/04/21 02:49:15;;;;;;;5.00;1.35;;;23.10;54.40;;;;;;4973482;28;20105;-61
2021/04/21 02:52:10;;;;;;;6.95;1.25;;;23.20;54.00;;;;;;4967979;28;20027;-61
2021/04/21 02:54:51;;;;;;;6.90;1.23;;;23.30;53.90;;;;;;4973556;28;20400;-65
2021/04/21 02:57:27;;;;;;;2.47;1.08;;;23.40;53.20;;;;;;4970379;28;20062;-63
2021/04/21 03:00:15;;;;;;;6.15;1.48;;;23.50;52.80;;;;;;4970382;28;20285;-61
2021/04/21 03:03:05;;;;;;;3.95;1.20;;;23.50;51.70;;;;;;4951152;28;20035;-64
2021/04/21 03:05:35;;;;;;;7.53;1.48;;;23.60;50.90;;;;;;4963215;28;20484;-64
2021/04/21 03:08:09;;;;;;;3.35;1.00;;;23.70;51.80;;;;;;4973474;28;20027;-62
2021/04/21 03:10:46;;;;;;;2.90;1.05;;;23.70;52.20;;;;;;4973390;28;20027;-65
2021/04/21 03:13:21;;;;;;;8.00;1.52;;;23.70;52.40;;;;;;4968778;28;20042;-66
2021/04/21 03:15:52;;;;;;;4.90;1.73;;;23.70;52.40;;;;;;4972066;28;20113;-65
2021/04/21 03:18:21;;;;;;;11.25;3.63;;;23.90;50.90;;;;;;4969844;28;20039;-64
2021/04/21 03:21:04;;;;;;;14.05;4.97;;;23.90;52.20;;;;;;4972788;28;20027;-63
2021/04/21 03:23:33;;;;;;;18.65;7.40;;;23.90;52.60;;;;;;4971346;28;20027;-62
2021/04/21 03:26:04;;;;;;;31.50;10.75;;;23.90;53.30;;;;;;4954791;28;20027;-67
2021/04/21 03:28:34;;;;;;;36.08;13.73;;;23.90;50.50;;;;;;4973712;28;20114;-63
2021/04/21 03:31:04;;;;;;;43.15;17.90;;;24.00;51.10;;;;;;4971746;28;20034;-62
2021/04/21 03:33:45;;;;;;;43.13;17.67;;;24.00;51.60;;;;;;4952758;28;20541;-62
2021/04/21 03:36:17;;;;;;;44.53;17.55;;;24.00;51.10;;;;;;4971695;28;20086;-61
2021/04/21 03:38:48;;;;;;;41.85;16.60;;;24.10;52.90;;;;;;4972785;28;20071;-66
2021/04/21 03:41:16;;;;;;;54.00;21.70;;;24.10;52.40;;;;;;4968768;28;20114;-66
2021/04/21 03:43:45;;;;;;;39.92;17.88;;;24.20;52.40;;;;;;4972261;28;20319;-61
2021/04/21 03:46:13;;;;;;;50.53;18.42;;;24.20;51.80;;;;;;4971560;28;20544;-61
2021/04/21 03:48:42;;;;;;;46.30;19.45;;;24.40;51.10;;;;;;4972581;28;20030;-60
2021/04/21 03:51:13;;;;;;;57.20;23.75;;;24.50;51.80;;;;;;4969255;28;20069;-60
2021/04/21 03:53:42;;;;;;;64.40;27.60;;;24.50;52.60;;;;;;4952413;28;20074;-62
2021/04/21 03:56:27;;;;;;;58.83;25.83;;;24.60;53.40;;;;;;4970782;28;20031;-66
2021/04/21 03:58:55;;;;;;;49.75;19.65;;;24.60;51.90;;;;;;4971467;28;20031;-62
2021/04/21 04:01:25;;;;;;;57.88;23.52;;;24.70;52.40;;;;;;4963875;28;20343;-61
2021/04/21 04:03:59;;;;;;;56.03;23.38;;;24.80;51.70;;;;;;4970799;28;20540;-63
2021/04/21 04:06:35;;;;;;;59.17;27.17;;;24.80;50.30;;;;;;4970756;28;20055;-64
2021/04/21 04:09:05;;;;;;;57.78;24.25;;;24.80;50.60;;;;;;4972951;28;20051;-67
2021/04/21 04:11:43;;;;;;;59.80;24.02;;;24.80;52.10;;;;;;4974412;28;20422;-69
2021/04/21 04:14:20;;;;;;;51.10;22.77;;;24.90;51.00;;;;;;4976902;28;20393;-69
2021/04/21 04:16:58;;;;;;;47.90;22.98;;;24.90;52.00;;;;;;4976165;28;20023;-68
2021/04/21 04:19:28;;;;;;;61.45;23.73;;;24.90;51.60;;;;;;4974650;28;20031;-65
2021/04/21 04:22:17;;;;;;;51.03;19.95;;;24.90;52.60;;;;;;4973878;28;20385;-70
2021/04/21 04:24:48;;;;;;;43.20;19.48;;;24.90;49.50;;;;;;4974736;28;20099;-69
2021/04/21 04:27:38;;;;;;;48.35;20.33;;;25.00;52.40;;;;;;4974527;28;20023;-70
2021/04/21 04:30:06;;;;;;;46.58;21.05;;;25.00;51.90;;;;;;4973836;28;20031;-69
2021/04/21 04:32:38;;;;;;;40.28;18.83;;;25.00;51.00;;;;;;4973109;28;20034;-68
2021/04/21 04:35:06;;;;;;;42.53;18.75;;;25.00;51.80;;;;;;4974846;28;20082;-69
2021/04/21 04:37:35;;;;;;;62.22;27.60;;;25.00;50.00;;;;;;4972562;28;20049;-69
2021/04/21 04:40:03;;;;;;;44.38;21.92;;;25.20;50.80;;;;;;4974975;28;20347;-70
2021/04/21 04:42:31;;;;;;;42.80;19.65;;;25.10;51.10;;;;;;4974685;28;20034;-68
2021/04/21 04:44:58;;;;;;;39.17;17.13;;;25.10;51.20;;;;;;4974506;28;20081;-70
2021/04/21 04:47:32;;;;;;;47.45;16.80;;;25.20;50.60;;;;;;4974362;28;20481;-69
2021/04/21 04:50:16;;;;;;;41.75;18.35;;;25.10;49.90;;;;;;4974078;28;20054;-70
2021/04/21 04:52:46;;;;;;;46.00;19.88;;;25.10;50.70;;;;;;4968422;28;20047;-68
2021/04/21 04:55:16;;;;;;;39.10;16.48;;;25.10;50.30;;;;;;4974156;28;20117;-70
2021/04/21 04:57:47;;;;;;;46.58;20.17;;;25.20;52.00;;;;;;4974456;28;20051;-70
2021/04/21 05:00:18;;;;;;;30.50;13.88;;;25.10;51.30;;;;;;4974286;28;20034;-69
2021/04/21 05:03:22;;;;;;;35.80;15.30;;;25.20;51.40;;;;;;4973834;28;20098;-65
2021/04/21 05:05:58;;;;;;;32.45;15.25;;;25.30;51.00;;;;;;4967796;28;20407;-62
2021/04/21 05:08:46;;;;;;;39.25;17.15;;;25.30;51.90;;;;;;4970957;28;20030;-67
2021/04/21 05:11:23;;;;;;;31.75;13.77;;;25.30;52.10;;;;;;4967510;28;20111;-62
2021/04/21 05:13:52;;;;;;;33.22;15.60;;;25.40;51.00;;;;;;4969442;28;20093;-62
2021/04/21 05:16:28;;;;;;;25.38;11.35;;;25.40;51.20;;;;;;4967919;28;20492;-67
2021/04/21 05:19:27;;;;;;;33.33;15.40;;;25.50;51.50;;;;;;4971662;28;20039;-64
2021/04/21 05:22:31;;;;;;;31.65;13.80;;;25.50;50.80;;;;;;4970652;28;20033;-65
2021/04/21 05:25:01;;;;;;;39.22;16.05;;;25.50;51.70;;;;;;4944249;28;20042;-64
2021/04/21 05:27:34;;;;;;;26.02;12.40;;;25.50;51.10;;;;;;4970761;28;20113;-66
2021/04/21 05:30:20;;;;;;;35.65;14.40;;;25.40;50.00;;;;;;4970182;28;20023;-65
2021/04/21 05:33:23;;;;;;;29.17;15.02;;;25.40;52.10;;;;;;4970021;28;20479;-65
2021/04/21 05:35:55;;;;;;;29.75;13.23;;;25.30;52.40;;;;;;4966089;28;20023;-66
2021/04/21 05:38:59;;;;;;;47.65;16.25;;;25.50;52.40;;;;;;4971704;28;20058;-65
2021/04/21 05:42:02;;;;;;;35.00;14.57;;;25.40;50.40;;;;;;4970562;28;20045;-68
2021/04/21 05:44:54;;;;;;;25.48;12.43;;;25.40;51.90;;;;;;4969670;28;20050;-65
2021/04/21 05:47:57;;;;;;;29.00;13.77;;;25.30;52.00;;;;;;4968624;28;20034;-65
2021/04/21 05:50:40;;;;;;;27.77;11.43;;;25.30;51.40;;;;;;4973780;28;20514;-66
2021/04/21 05:53:43;;;;;;;25.77;11.88;;;25.40;52.10;;;;;;4973624;28;20037;-64
2021/04/21 05:56:37;;;;;;;21.70;10.63;;;25.30;52.00;;;;;;4969546;28;20015;-64
2021/04/21 05:59:23;;;;;;;25.70;11.32;;;25.20;51.70;;;;;;4973335;28;20074;-64
2021/04/21 06:01:52;;;;;;;25.02;11.50;;;25.20;52.00;;;;;;4974396;28;20027;-67
2021/04/21 06:04:20;;;;;;;32.00;11.00;;;25.20;51.60;;;;;;4974008;28;20026;-67
2021/04/21 06:06:48;;;;;;;24.38;10.75;;;25.20;51.40;;;;;;4969828;28;20359;-65
2021/04/21 06:09:15;;;;;;;25.80;11.48;;;25.10;51.80;;;;;;4975506;28;20023;-65
2021/04/21 06:11:43;;;;;;;23.48;9.55;;;25.10;52.10;;;;;;4974802;28;20027;-64
2021/04/21 06:14:10;;;;;;;17.13;8.95;;;25.10;53.40;;;;;;4974211;28;20058;-68
2021/04/21 06:16:38;;;;;;;18.90;9.07;;;25.00;52.90;;;;;;4969222;28;20029;-66
2021/04/21 06:19:08;;;;;;;24.80;10.73;;;25.00;51.10;;;;;;4974767;28;20046;-66
2021/04/21 06:21:40;;;;;;;21.05;8.38;;;24.90;53.90;;;;;;4973373;28;20019;-68
2021/04/21 06:24:22;;;;;;;24.95;9.55;;;24.90;52.20;;;;;;4973436;28;20469;-68
2021/04/21 06:26:50;;;;;;;25.52;10.95;;;24.90;53.60;;;;;;4968404;28;20035;-64
2021/04/21 06:29:18;;;;;;;15.68;7.47;;;24.80;54.60;;;;;;4973967;28;20374;-65
2021/04/21 06:31:51;;;;;;;24.08;11.35;;;24.80;53.20;;;;;;4974619;28;20027;-61
2021/04/21 06:34:19;;;;;;;19.85;8.43;;;24.70;52.70;;;;;;4973154;28;20070;-64
2021/04/21 06:36:57;;;;;;;19.05;8.43;;;24.60;52.60;;;;;;4968662;28;20090;-64
2021/04/21 06:39:35;;;;;;;21.90;9.30;;;24.50;52.30;;;;;;4972097;28;20026;-62
2021/04/21 06:42:04;;;;;;;22.02;8.77;;;24.40;53.90;;;;;;4974660;28;20033;-64
2021/04/21 06:44:45;;;;;;;19.05;8.25;;;24.30;52.10;;;;;;4955707;28;20066;-61
2021/04/21 06:47:27;;;;;;;31.67;21.90;;;24.10;53.70;;;;;;4970300;28;20518;-62
2021/04/21 06:50:11;;;;;;;18.67;9.88;;;24.00;54.20;;;;;;4972653;28;20058;-59
2021/04/21 06:52:42;;;;;;;22.65;11.88;;;23.90;53.20;;;;;;4973297;28;20077;-63
2021/04/21 06:55:17;;;;;;;22.50;16.27;;;23.80;53.10;;;;;;4971480;28;20034;-64
2021/04/21 06:57:45;;;;;;;26.70;18.40;;;23.60;51.20;;;;;;4974464;28;20042;-63
2021/04/21 07:00:53;;;;;;;20.48;12.20;;;23.40;51.20;;;;;;4956203;28;20038;-65
2021/04/21 07:03:21;;;;;;;28.52;17.13;;;23.30;50.70;;;;;;4954537;28;20142;-66
2021/04/21 07:05:49;;;;;;;26.83;15.57;;;23.10;51.10;;;;;;4974427;28;20030;-63
2021/04/21 07:08:28;;;;;;;27.58;13.50;;;23.10;51.50;;;;;;4956999;28;20046;-63
2021/04/21 07:10:58;;;;;;;20.80;15.63;;;23.00;51.90;;;;;;4973668;28;20102;-63
2021/04/21 07:13:48;;;;;;;25.50;17.85;;;22.90;51.50;;;;;;4974661;28;20412;-64
2021/04/21 07:16:15;;;;;;;13.15;7.78;;;22.80;51.90;;;;;;4975072;28;20095;-65
2021/04/21 07:19:06;;;;;;;19.23;7.35;;;22.80;52.30;;;;;;4974851;28;20363;-62
2021/04/21 07:21:34;;;;;;;17.70;6.85;;;22.70;52.60;;;;;;4974657;28;20031;-63
2021/04/21 07:24:04;;;;;;;12.55;5.20;;;22.70;52.50;;;;;;4974885;28;20023;-62
2021/04/21 07:26:37;;;;;;;13.63;5.38;;;22.70;52.30;;;;;;4975000;28;20381;-62
2021/04/21 07:29:09;;;;;;;12.27;4.70;;;22.60;52.60;;;;;;4974804;28;20037;-63
2021/04/21 07:31:40;;;;;;;13.00;5.17;;;22.60;52.10;;;;;;4974880;28;20110;-66
2021/04/21 07:34:12;;;;;;;14.13;4.38;;;22.50;53.00;;;;;;4975448;28;20054;-63
2021/04/21 07:36:50;;;;;;;13.52;4.43;;;22.50;52.50;;;;;;4974428;28;20093;-64
2021/04/21 07:39:18;;;;;;;15.18;4.53;;;22.50;53.50;;;;;;4974753;28;20199;-64
2021/04/21 07:41:48;;;;;;;14.55;3.88;;;22.50;53.40;;;;;;4974636;28;20062;-63
2021/04/21 07:44:32;;;;;;;9.82;3.47;;;22.40;53.20;;;;;;4975376;28;20082;-63
2021/04/21 07:47:08;;;;;;;11.25;3.55;;;22.40;53.40;;;;;;4974579;28;20030;-66
2021/04/21 07:49:47;;;;;;;14.50;3.75;;;22.40;53.10;;;;;;4974176;28;20090;-56
2021/04/21 07:52:27;;;;;;;12.95;3.20;;;22.40;53.40;;;;;;4974853;28;20030;-57
2021/04/21 07:55:21;;;;;;;14.15;3.95;;;22.30;53.40;;;;;;4974642;28;20023;-63
2021/04/21 07:58:06;;;;;;;18.92;3.30;;;22.30;54.10;;;;;;4974186;28;20034;-62
2021/04/21 08:00:38;;;;;;;22.10;3.67;;;22.30;54.10;;;;;;4974267;28;20037;-65
2021/04/21 08:03:06;;;;;;;23.75;4.68;;;22.20;55.00;;;;;;4956652;28;20058;-52
2021/04/21 08:05:33;;;;;;;15.63;5.03;;;22.20;53.80;;;;;;4974315;28;20250;-58
2021/04/21 08:08:03;;;;;;;13.55;3.35;;;22.10;54.10;;;;;;4957127;28;20341;-61
2021/04/21 08:10:39;;;;;;;13.82;3.30;;;22.10;54.10;;;;;;4973923;28;20018;-62
2021/04/21 08:13:08;;;;;;;20.27;3.75;;;22.00;54.70;;;;;;4973640;28;20031;-56
2021/04/21 08:15:41;;;;;;;11.90;2.88;;;22.00;54.20;;;;;;4974037;28;20051;-59
2021/04/21 08:18:09;;;;;;;8.93;3.13;;;21.90;54.50;;;;;;4962941;28;20034;-52
2021/04/21 08:20:40;;;;;;;15.73;3.00;;;21.90;54.60;;;;;;4971703;28;20026;-61
2021/04/21 08:23:10;;;;;;;8.85;2.60;;;21.80;54.90;;;;;;4970008;28;20026;-54
2021/04/21 08:25:39;;;;;;;9.88;3.05;;;21.70;55.10;;;;;;4971538;28;20027;-51
2021/04/21 08:28:06;;;;;;;12.13;2.45;;;21.60;55.20;;;;;;4967859;28;20085;-55
2021/04/21 08:30:34;;;;;;;12.80;1.98;;;21.60;55.40;;;;;;4971902;28;20026;-61
2021/04/21 08:33:03;;;;;;;8.52;2.72;;;21.60;55.50;;;;;;4955074;28;20035;-53
2021/04/21 08:35:30;;;;;;;6.57;2.08;;;21.60;55.70;;;;;;4971213;28;20023;-51
2021/04/21 08:37:58;;;;;;;10.13;2.42;;;21.50;55.70;;;;;;4963122;28;20034;-53
2021/04/21 08:40:26;;;;;;;20.40;3.33;;;21.60;55.90;;;;;;4951372;28;20498;-55
2021/04/21 08:42:59;;;;;;;17.38;3.05;;;21.50;56.10;;;;;;4972521;28;20062;-61
2021/04/21 08:45:27;;;;;;;12.23;3.20;;;21.50;56.60;;;;;;4967842;28;20019;-62
2021/04/21 08:47:56;;;;;;;14.57;3.38;;;21.50;57.00;;;;;;4966431;28;20426;-60
2021/04/21 08:50:28;;;;;;;11.00;2.50;;;21.50;57.50;;;;;;4970333;28;20051;-59
2021/04/21 08:53:00;;;;;;;22.70;3.85;;;21.50;58.50;;;;;;4962676;28;20035;-64
2021/04/21 08:55:29;;;;;;;20.80;4.30;;;21.50;58.80;;;;;;4954710;28;20034;-65
2021/04/21 08:57:57;;;;;;;14.98;3.30;;;21.50;59.20;;;;;;4964987;28;20062;-58
2021/04/21 09:00:25;;;;;;;20.35;7.05;;;21.50;60.00;;;;;;4973668;28;20026;-62
2021/04/21 09:02:53;;;;;;;12.70;3.05;;;21.50;60.00;;;;;;4974166;28;20110;-61
2021/04/21 09:05:27;;;;;;;15.95;5.07;;;21.50;62.00;;;;;;4973921;28;20023;-63
2021/04/21 09:07:56;;;;;;;21.52;5.65;;;21.40;61.70;;;;;;4973041;28;20030;-64
2021/04/21 09:10:24;;;;;;;20.50;6.18;;;21.40;61.90;;;;;;4955929;28;20066;-64
2021/04/21 09:12:51;;;;;;;20.83;9.82;;;21.50;63.00;;;;;;4973827;28;20106;-61
2021/04/21 09:15:19;;;;;;;19.20;7.93;;;21.40;62.40;;;;;;4973913;28;20027;-70
2021/04/21 09:17:52;;;;;;;34.55;22.92;;;21.40;61.90;;;;;;4975687;28;20042;-54
2021/04/21 09:20:24;;;;;;;19.25;11.05;;;21.40;63.80;;;;;;4974750;28;20481;-62
2021/04/21 09:23:13;;;;;;;21.00;11.10;;;21.40;64.30;;;;;;4973487;28;20037;-68
2021/04/21 09:26:00;;;;;;;20.83;10.10;;;21.30;65.10;;;;;;4976974;28;20039;-64
2021/04/21 09:28:40;;;;;;;23.83;15.05;;;21.30;66.50;;;;;;4977139;28;20070;-66
2021/04/21 09:31:26;;;;;;;17.58;9.25;;;21.30;66.90;;;;;;4952147;28;20051;-63
2021/04/21 09:34:13;;;;;;;41.22;10.65;;;21.30;65.50;;;;;;4975294;28;20031;-64
2021/04/21 09:36:46;;;;;;;31.40;7.18;;;21.30;67.70;;;;;;4973391;28;20035;-68
2021/04/21 09:39:25;;;;;;;31.52;14.23;;;21.30;68.70;;;;;;4975181;28;20050;-66
2021/04/21 09:42:01;;;;;;;25.23;14.77;;;21.30;66.60;;;;;;4973980;28;20122;-64
2021/04/21 09:44:32;;;;;;;24.58;9.85;;;21.30;65.80;;;;;;4975702;28;20082;-63
2021/04/21 09:47:16;;;;;;;21.42;6.95;;;21.30;64.80;;;;;;4972401;28;20534;-63
2021/04/21 09:49:44;;;;;;;30.80;10.38;;;21.20;65.70;;;;;;4973922;28;20447;-62
2021/04/21 09:52:14;;;;;;;20.60;6.57;;;21.10;63.70;;;;;;4974639;28;20384;-64
2021/04/21 09:54:47;;;;;;;40.10;7.43;;;21.10;63.80;;;;;;4974847;28;20077;-67
2021/04/21 09:57:27;;;;;;;39.20;18.67;;;21.00;67.80;;;;;;4970161;28;20060;-64
2021/04/21 10:00:02;;;;;;;23.63;6.05;;;21.00;67.00;;;;;;4974641;28;20107;-66
2021/04/21 10:02:38;;;;;;;21.30;7.63;;;21.00;69.20;;;;;;4957954;28;20034;-67
2021/04/21 10:05:29;;;;;;;17.40;5.18;;;21.00;69.40;;;;;;4973125;28;20030;-64
2021/04/21 10:08:25;;;;;;;19.13;3.97;;;21.10;70.20;;;;;;4968925;28;20076;-64
2021/04/21 10:11:03;;;;;;;10.30;3.63;;;21.10;70.60;;;;;;4974547;28;20037;-64
2021/04/21 10:13:48;;;;;;;13.60;4.15;;;21.10;71.10;;;;;;4974507;28;20601;-64
2021/04/21 10:16:16;;;;;;;24.55;4.60;;;21.10;72.80;;;;;;4973860;28;20097;-66
2021/04/21 10:18:44;;;;;;;21.05;7.88;;;21.10;73.00;;;;;;4970290;28;20037;-64
2021/04/21 10:21:13;;;;;;;24.83;6.60;;;21.10;73.30;;;;;;4974181;28;20474;-64
2021/04/21 10:23:43;;;;;;;22.90;9.98;;;21.10;72.50;;;;;;4974469;28;20023;-63
2021/04/21 10:26:14;;;;;;;14.50;4.75;;;21.10;73.30;;;;;;4973342;28;20367;-62
2021/04/21 10:28:44;;;;;;;19.67;5.20;;;21.10;72.00;;;;;;4968969;28;20031;-65
2021/04/21 10:31:17;;;;;;;31.52;11.45;;;21.10;73.40;;;;;;4973033;28;20074;-65
2021/04/21 10:33:48;;;;;;;46.35;7.43;;;21.10;73.40;;;;;;4975285;28;20118;-71
2021/04/21 10:36:15;;;;;;;21.27;5.57;;;21.00;74.50;;;;;;4974052;28;20023;-69
2021/04/21 10:38:44;;;;;;;17.20;8.02;;;21.00;72.40;;;;;;4970249;28;20031;-68
2021/04/21 10:41:44;;;;;;;23.60;5.07;;;21.00;71.30;;;;;;4974541;28;20027;-65
2021/04/21 10:44:16;;;;;;;21.33;6.28;;;20.80;71.20;;;;;;4963269;28;20034;-70
2021/04/21 10:47:07;;;;;;;18.95;5.18;;;20.90;69.70;;;;;;4968685;28;20054;-63
2021/04/21 10:49:41;;;;;;;18.88;4.35;;;20.80;69.90;;;;;;4970833;28;20051;-63
2021/04/21 10:52:12;;;;;;;18.02;4.18;;;20.80;69.80;;;;;;4972917;28;20118;-60
2021/04/21 10:54:41;;;;;;;13.98;5.18;;;20.80;70.40;;;;;;4971048;28;20077;-62
2021/04/21 10:57:23;;;;;;;15.43;6.28;;;20.80;70.30;;;;;;4965086;28;20340;-68
2021/04/21 11:00:03;;;;;;;15.15;7.32;;;20.80;71.00;;;;;;4970764;28;20034;-61
2021/04/21 11:02:58;;;;;;;17.45;6.47;;;20.70;70.20;;;;;;4973045;28;20050;-66
2021/04/21 11:05:30;;;;;;;15.27;5.72;;;20.70;70.50;;;;;;4950478;28;20089;-63
2021/04/21 11:08:00;;;;;;;11.57;5.22;;;20.80;70.30;;;;;;4968066;28;20525;-65
2021/04/21 11:10:42;;;;;;;14.23;6.38;;;20.70;69.90;;;;;;4971154;28;20034;-68
2021/04/21 11:13:11;;;;;;;16.75;7.20;;;20.80;70.50;;;;;;4974590;28;20139;-69
2021/04/21 11:15:51;;;;;;;20.33;8.00;;;20.70;70.20;;;;;;4970991;28;21416;-66
2021/04/21 11:18:28;;;;;;;13.30;6.05;;;20.70;70.20;;;;;;4968676;28;20039;-64
2021/04/21 11:21:10;;;;;;;14.48;5.90;;;20.70;70.00;;;;;;4972953;28;20455;-65
2021/04/21 11:23:56;;;;;;;14.98;6.22;;;20.70;70.10;;;;;;4973200;28;20035;-65
2021/04/21 11:26:27;;;;;;;15.13;6.00;;;20.70;70.20;;;;;;4973288;28;20030;-63
2021/04/21 11:29:10;;;;;;;11.73;7.32;;;20.70;70.60;;;;;;4967675;28;20027;-63
2021/04/21 11:31:49;;;;;;;14.77;6.32;;;20.60;69.80;;;;;;4972503;28;20072;-64
2021/04/21 11:34:32;;;;;;;12.32;6.13;;;20.60;70.00;;;;;;4973954;28;20030;-67
2021/04/21 11:37:01;;;;;;;14.00;5.03;;;20.60;70.00;;;;;;4970267;28;20065;-69
2021/04/21 11:39:44;;;;;;;14.40;5.78;;;20.60;70.50;;;;;;4967310;28;20151;-69
2021/04/21 11:42:20;;;;;;;11.93;5.90;;;20.60;69.90;;;;;;4972231;28;20030;-69
2021/04/21 11:44:52;;;;;;;17.10;6.63;;;20.60;70.00;;;;;;4973776;28;20081;-69
2021/04/21 11:47:37;;;;;;;10.15;5.57;;;20.50;69.90;;;;;;4971123;28;20038;-66
2021/04/21 11:50:07;;;;;;;11.55;5.70;;;20.50;69.80;;;;;;4945001;28;20050;-69
2021/04/21 11:52:47;;;;;;;13.93;5.45;;;20.50;69.80;;;;;;4969132;28;20042;-63
2021/04/21 11:55:32;;;;;;;10.57;6.20;;;20.40;69.70;;;;;;4969282;28;20498;-62
2021/04/21 11:58:29;;;;;;;8.38;5.30;;;20.40;69.80;;;;;;4968621;28;20465;-65
2021/04/21 12:01:01;;;;;;;11.32;4.88;;;20.40;69.90;;;;;;4972492;28;20023;-64
2021/04/21 12:03:45;;;;;;;13.77;5.20;;;20.40;69.80;;;;;;4969425;28;20023;-63
2021/04/21 12:06:15;;;;;;;8.07;5.22;;;20.40;69.50;;;;;;4970921;28;20035;-60
2021/04/21 12:08:50;;;;;;;14.20;5.28;;;20.40;69.50;;;;;;4967211;28;20026;-62
2021/04/21 12:11:26;;;;;;;11.20;5.70;;;20.30;69.40;;;;;;4971721;28;20029;-63
2021/04/21 12:13:53;;;;;;;8.25;5.25;;;20.30;69.70;;;;;;4972868;28;20035;-65
2021/04/21 12:16:23;;;;;;;10.23;5.00;;;20.30;69.70;;;;;;4972825;28;20026;-64
2021/04/21 12:18:58;;;;;;;8.00;4.65;;;20.30;69.50;;;;;;4967173;28;20043;-66
2021/04/21 12:21:31;;;;;;;8.05;4.57;;;20.30;69.60;;;;;;4972233;28;20359;-67
2021/04/21 12:23:59;;;;;;;;;;;20.30;69.40;;;;;;4970845;28;20054;-65
2021/04/21 12:26:41;;;;;;;9.68;4.90;;;20.20;69.70;;;;;;4972568;28;19906;-65
2021/04/21 12:29:13;;;;;;;11.68;4.60;;;20.20;69.80;;;;;;4970285;28;20030;-66
2021/04/21 12:31:42;;;;;;;7.85;4.53;;;20.20;69.80;;;;;;4970048;28;20047;-65
2021/04/21 12:34:20;;;;;;;12.25;4.60;;;20.20;69.70;;;;;;4972630;28;20030;-66
2021/04/21 12:36:50;;;;;;;7.90;4.00;;;20.20;69.70;;;;;;4967651;28;20035;-64
2021/04/21 12:39:21;;;;;;;11.45;4.88;;;20.20;69.70;;;;;;4971357;28;20053;-66
2021/04/21 12:41:55;;;;;;;11.60;4.60;;;20.10;69.70;;;;;;4971101;28;20057;-67
2021/04/21 12:44:28;;;;;;;8.50;4.50;;;20.20;69.70;;;;;;4972391;28;20100;-63
2021/04/21 12:47:07;;;;;;;10.43;4.95;;;20.20;69.60;;;;;;4967402;28;20084;-64
2021/04/21 12:49:42;;;;;;;7.22;4.28;;;20.10;69.40;;;;;;4971821;28;20079;-66
2021/04/21 12:52:28;;;;;;;8.50;4.40;;;20.10;69.50;;;;;;4971335;28;20027;-65
2021/04/21 12:54:55;;;;;;;11.75;4.63;;;20.10;69.70;;;;;;4971996;28;20470;-66
2021/04/21 12:57:24;;;;;;;9.70;4.40;;;20.10;69.60;;;;;;4967155;28;20079;-65
2021/04/21 12:59:53;;;;;;;8.07;3.72;;;20.10;69.60;;;;;;4974663;28;20031;-66
2021/04/21 13:02:43;;;;;;;7.60;4.10;;;20.00;69.50;;;;;;4975173;28;20101;-65
2021/04/21 13:05:15;;;;;;;8.40;4.63;;;20.00;69.80;;;;;;4975982;28;20038;-68
2021/04/21 13:07:43;;;;;;;8.20;4.68;;;20.00;69.60;;;;;;4968573;28;20056;-61
2021/04/21 13:10:16;;;;;;;9.48;4.15;;;20.10;69.50;;;;;;4975488;28;20077;-63
2021/04/21 13:12:44;;;;;;;7.03;4.25;;;20.00;69.50;;;;;;4973527;28;20103;-66
2021/04/21 13:15:14;;;;;;;5.97;4.35;;;20.00;69.70;;;;;;4976296;28;20038;-68
2021/04/21 13:17:54;;;;;;;8.77;4.00;;;20.00;69.80;;;;;;4970133;28;20038;-64
2021/04/21 13:20:52;;;;;;;7.00;3.28;;;19.90;69.70;;;;;;4956807;28;20367;-63
2021/04/21 13:23:24;;;;;;;11.55;3.92;;;19.90;69.80;;;;;;4975451;28;20110;-68